createdAt,value
2023-04-02T00:03:44.778Z,15.94
2023-04-02T00:06:35.224Z,15.89
2023-04-02T00:09:22.202Z,15.88
2023-04-02T00:11:52.484Z,15.82
2023-04-02T00:14:30.512Z,15.80
2023-04-02T00:17:02.222Z,15.74
2023-04-02T00:19:49.103Z,15.68
2023-04-02T00:22:20.105Z,15.65
2023-04-02T00:24:52.649Z,15.67
2023-04-02T00:27:21.777Z,15.69
2023-04-02T00:29:53.046Z,15.69
2023-04-02T00:32:27.427Z,15.70
2023-04-02T00:34:57.189Z,15.66
2023-04-02T00:37:29.934Z,15.65
2023-04-02T00:40:05.657Z,15.65
2023-04-02T00:42:35.794Z,15.65
2023-04-02T00:45:05.353Z,15.66
2023-04-02T00:47:37.653Z,15.68
2023-04-02T00:50:36.276Z,15.73
2023-04-02T00:53:11.490Z,15.78
2023-04-02T00:55:41.936Z,15.78
2023-04-02T00:58:25.479Z,15.77
2023-04-02T01:00:55.078Z,15.78
2023-04-02T01:03:26.493Z,15.80
2023-04-02T01:06:08.280Z,15.83
2023-04-02T01:09:05.729Z,15.87
2023-04-02T01:11:55.939Z,15.93
2023-04-02T01:14:52.980Z,15.97
2023-04-02T01:17:59.986Z,15.99
2023-04-02T01:20:55.096Z,16.04
2023-04-02T01:23:53.932Z,16.07
2023-04-02T01:26:45.617Z,16.10
2023-04-02T01:29:18.870Z,16.12
2023-04-02T01:31:49.384Z,16.14
2023-04-02T01:34:20.250Z,16.14
2023-04-02T01:37:05.653Z,16.13
2023-04-02T01:39:52.407Z,16.11
2023-04-02T01:42:37.573Z,16.12
2023-04-02T01:45:15.740Z,16.07
2023-04-02T01:47:45.627Z,16.07
2023-04-02T01:50:28.496Z,16.08
2023-04-02T01:52:59.916Z,16.08
2023-04-02T01:55:55.404Z,16.08
2023-04-02T01:58:27.122Z,16.07
2023-04-02T02:01:16.218Z,16.05
2023-04-02T02:03:45.655Z,16.04
2023-04-02T02:06:16.831Z,16.03
2023-04-02T02:09:02.107Z,16.03
2023-04-02T02:11:33.073Z,16.03
2023-04-02T02:14:08.998Z,16.04
2023-04-02T02:16:39.753Z,16.05
2023-04-02T02:19:34.178Z,16.05
2023-04-02T02:22:18.216Z,16.06
2023-04-02T02:24:47.531Z,16.07
2023-04-02T02:27:45.679Z,16.09
2023-04-02T02:30:24.659Z,16.12
2023-04-02T02:33:08.698Z,16.15
2023-04-02T02:36:17.118Z,16.18
2023-04-02T02:39:23.297Z,16.19
2023-04-02T02:42:08.730Z,16.20
2023-04-02T02:44:42.252Z,16.21
2023-04-02T02:47:16.942Z,16.20
2023-04-02T02:49:51.201Z,16.19
2023-04-02T02:52:22.903Z,16.18
2023-04-02T02:54:55.457Z,16.17
2023-04-02T02:57:28.005Z,16.16
2023-04-02T03:00:01.966Z,16.15
2023-04-02T03:02:30.188Z,16.14
2023-04-02T03:04:59.416Z,16.13
2023-04-02T03:07:28.312Z,16.11
2023-04-02T03:10:15.284Z,16.09
2023-04-02T03:13:14.217Z,16.08
2023-04-02T03:15:49.335Z,16.05
2023-04-02T03:18:34.840Z,16.01
2023-04-02T03:21:14.561Z,16.02
2023-04-02T03:23:47.649Z,16.03
2023-04-02T03:26:22.553Z,16.01
2023-04-02T03:28:59.736Z,16.00
2023-04-02T03:31:45.335Z,16.00
2023-04-02T03:34:22.645Z,16.00
2023-04-02T03:37:08.336Z,15.99
2023-04-02T03:39:55.106Z,15.97
2023-04-02T03:42:24.614Z,15.93
2023-04-02T03:45:00.420Z,15.86
2023-04-02T03:47:56.527Z,15.82
2023-04-02T03:50:36.850Z,15.78
2023-04-02T03:53:08.394Z,15.74
2023-04-02T03:55:38.935Z,15.70
2023-04-02T03:58:16.957Z,15.65
2023-04-02T04:01:05.012Z,15.61
2023-04-02T04:03:36.844Z,15.57
2023-04-02T04:06:26.983Z,15.56
2023-04-02T04:09:10.670Z,15.55
2023-04-02T04:11:45.615Z,15.52
2023-04-02T04:14:18.653Z,15.50
2023-04-02T04:16:53.368Z,15.52
2023-04-02T04:19:26.895Z,15.52
2023-04-02T04:22:10.645Z,15.51
2023-04-02T04:24:39.571Z,15.51
2023-04-02T04:27:28.754Z,15.49
2023-04-02T04:29:59.549Z,15.47
2023-04-02T04:32:40.294Z,15.45
2023-04-02T04:35:27.824Z,15.42
2023-04-02T04:38:41.212Z,15.41
2023-04-02T04:41:21.133Z,15.37
2023-04-02T04:43:55.744Z,15.35
2023-04-02T04:46:31.498Z,15.32
2023-04-02T04:49:11.893Z,15.31
2023-04-02T04:51:49.655Z,15.30
2023-04-02T04:54:17.606Z,15.28
2023-04-02T04:56:50.123Z,15.24
2023-04-02T04:59:25.743Z,15.20
2023-04-02T05:02:24.330Z,15.16
2023-04-02T05:04:53.559Z,15.12
2023-04-02T05:07:25.925Z,15.08
2023-04-02T05:10:02.266Z,15.03
2023-04-02T05:12:53.647Z,14.98
2023-04-02T05:15:35.684Z,14.92
2023-04-02T05:18:25.482Z,14.88
2023-04-02T05:21:20.174Z,14.84
2023-04-02T05:24:18.824Z,14.81
2023-04-02T05:26:50.370Z,14.78
2023-04-02T05:29:34.703Z,14.75
2023-04-02T05:32:16.270Z,14.73
2023-04-02T05:34:51.535Z,14.70
2023-04-02T05:37:22.370Z,14.68
2023-04-02T05:39:55.579Z,14.66
2023-04-02T05:42:36.939Z,14.63
2023-04-02T05:45:09.541Z,14.60
2023-04-02T05:47:40.918Z,14.57
2023-04-02T05:50:27.053Z,14.56
2023-04-02T05:53:04.534Z,14.56
2023-04-02T05:55:40.980Z,14.57
2023-04-02T05:58:36.006Z,14.57
2023-04-02T06:01:28.254Z,14.59
2023-04-02T06:04:36.522Z,14.61
2023-04-02T06:07:10.469Z,14.63
2023-04-02T06:09:47.357Z,14.67
2023-04-02T06:12:40.300Z,15.31
2023-04-02T06:15:20.101Z,15.89
2023-04-02T06:17:51.759Z,15.70
2023-04-02T06:20:21.355Z,15.55
2023-04-02T06:22:56.375Z,15.48
2023-04-02T06:25:29.933Z,15.44
2023-04-02T06:28:01.789Z,15.80
2023-04-02T06:30:37.227Z,16.35
2023-04-02T06:33:05.807Z,17.15
2023-04-02T06:35:37.328Z,18.50
2023-04-02T06:38:13.902Z,19.98
2023-04-02T06:40:49.748Z,21.36
2023-04-02T06:43:20.719Z,21.94
2023-04-02T06:45:54.349Z,21.81
2023-04-02T06:48:25.442Z,22.66
2023-04-02T06:51:07.777Z,24.20
2023-04-02T06:53:43.850Z,25.66
2023-04-02T06:56:24.238Z,27.04
2023-04-02T06:58:55.638Z,28.09
2023-04-02T07:01:29.144Z,29.27
2023-04-02T07:03:58.815Z,30.52
2023-04-02T07:06:27.950Z,31.33
2023-04-02T07:08:56.206Z,32.15
2023-04-02T07:11:24.703Z,32.95
2023-04-02T07:13:52.723Z,32.92
2023-04-02T07:16:26.349Z,32.09
2023-04-02T07:18:55.948Z,31.54
2023-04-02T07:21:24.869Z,31.64
2023-04-02T07:23:54.426Z,32.44
2023-04-02T07:26:26.460Z,33.14
2023-04-02T07:28:56.800Z,33.62
2023-04-02T07:31:28.185Z,34.48
2023-04-02T07:33:58.473Z,35.10
2023-04-02T07:36:29.057Z,35.46
2023-04-02T07:38:57.309Z,35.88
2023-04-02T07:41:25.692Z,35.93
2023-04-02T07:43:54.112Z,36.04
2023-04-02T07:46:22.490Z,36.53
2023-04-02T07:48:50.663Z,37.04
2023-04-02T07:51:25.441Z,37.49
2023-04-02T07:53:54.294Z,37.87
2023-04-02T07:56:25.331Z,38.46
2023-04-02T07:58:54.059Z,39.11
2023-04-02T08:01:27.427Z,39.54
2023-04-02T08:03:57.801Z,40.12
2023-04-02T08:06:26.232Z,40.35
2023-04-02T08:08:54.690Z,40.70
2023-04-02T08:11:22.848Z,40.87
2023-04-02T08:13:50.984Z,41.14
2023-04-02T08:16:19.173Z,41.49
2023-04-02T08:18:47.709Z,41.55
2023-04-02T08:21:16.845Z,41.67
2023-04-02T08:23:45.586Z,41.69
2023-04-02T08:26:18.837Z,41.57
2023-04-02T08:28:47.334Z,41.91
2023-04-02T08:31:15.778Z,41.79
2023-04-02T08:33:44.101Z,41.95
2023-04-02T08:36:19.331Z,42.02
2023-04-02T08:38:48.063Z,42.07
2023-04-02T08:41:27.148Z,42.04
2023-04-02T08:44:23.243Z,42.26
2023-04-02T08:46:51.324Z,42.15
2023-04-02T08:49:32.828Z,42.21
2023-04-02T08:52:00.958Z,42.15
2023-04-02T08:54:50.155Z,42.15
2023-04-02T08:57:29.049Z,42.06
2023-04-02T09:00:20.982Z,41.65
2023-04-02T09:03:00.392Z,41.02
2023-04-02T09:05:39.700Z,40.35
2023-04-02T09:08:20.490Z,39.59
2023-04-02T09:11:02.768Z,38.99
2023-04-02T09:13:34.099Z,38.46
2023-04-02T09:16:14.651Z,37.91
2023-04-02T09:18:45.441Z,37.67
2023-04-02T09:21:19.907Z,37.81
2023-04-02T09:23:49.816Z,37.87
2023-04-02T09:26:38.443Z,38.04
2023-04-02T09:29:12.749Z,38.53
2023-04-02T09:31:53.750Z,38.85
2023-04-02T09:34:36.637Z,39.17
2023-04-02T09:37:16.557Z,39.29
2023-04-02T09:39:46.152Z,39.62
2023-04-02T09:42:35.390Z,39.73
2023-04-02T09:45:25.537Z,39.64
2023-04-02T09:47:57.696Z,39.82
2023-04-02T09:50:29.324Z,39.82
2023-04-02T09:52:59.930Z,39.68
2023-04-02T09:55:29.524Z,39.82
2023-04-02T09:58:16.249Z,39.93
2023-04-02T10:00:52.567Z,40.17
2023-04-02T10:03:33.244Z,40.40
2023-04-02T10:06:14.642Z,40.68
2023-04-02T10:08:44.822Z,40.93
2023-04-02T10:11:45.747Z,41.25
2023-04-02T10:14:28.225Z,41.81
2023-04-02T10:17:18.368Z,41.96
2023-04-02T10:20:06.367Z,42.30
2023-04-02T10:22:34.514Z,41.75
2023-04-02T10:25:06.642Z,41.47
2023-04-02T10:27:48.239Z,41.00
2023-04-02T10:30:21.173Z,40.54
2023-04-02T10:33:14.912Z,40.07
2023-04-02T10:36:22.031Z,39.59
2023-04-02T10:39:01.909Z,39.95
2023-04-02T10:41:36.424Z,40.29
2023-04-02T10:44:40.087Z,40.10
2023-04-02T10:47:30.418Z,40.34
2023-04-02T10:50:13.962Z,40.38
2023-04-02T10:53:21.616Z,39.43
2023-04-02T10:56:03.450Z,39.58
2023-04-02T10:58:35.539Z,39.09
2023-04-02T11:01:12.043Z,37.51
2023-04-02T11:03:46.222Z,36.13
2023-04-02T11:06:20.221Z,35.27
2023-04-02T11:08:52.614Z,34.68
2023-04-02T11:11:25.523Z,34.12
2023-04-02T11:14:12.701Z,33.91
2023-04-02T11:16:44.207Z,33.80
2023-04-02T11:19:19.059Z,33.76
2023-04-02T11:21:59.368Z,33.72
2023-04-02T11:24:31.609Z,33.72
2023-04-02T11:27:12.241Z,32.92
2023-04-02T11:30:18.303Z,31.82
2023-04-02T11:32:48.475Z,30.29
2023-04-02T11:35:32.283Z,29.68
2023-04-02T11:38:23.476Z,29.41
2023-04-02T11:40:57.615Z,29.23
2023-04-02T11:43:38.621Z,29.49
2023-04-02T11:46:21.652Z,29.96
2023-04-02T11:48:50.192Z,30.55
2023-04-02T11:51:34.064Z,31.09
2023-04-02T11:54:02.772Z,31.32
2023-04-02T11:56:48.109Z,31.06
2023-04-02T11:59:32.626Z,31.17
2023-04-02T12:02:22.595Z,30.77
2023-04-02T12:05:08.986Z,29.94
2023-04-02T12:07:57.792Z,29.24
2023-04-02T12:10:52.725Z,28.89
2023-04-02T12:13:42.475Z,28.79
2023-04-02T12:16:12.662Z,28.46
2023-04-02T12:18:46.414Z,27.96
2023-04-02T12:21:21.500Z,27.46
2023-04-02T12:23:53.741Z,27.27
2023-04-02T12:26:35.716Z,26.96
2023-04-02T12:29:27.538Z,26.28
2023-04-02T12:31:58.288Z,25.57
2023-04-02T12:34:30.015Z,25.43
2023-04-02T12:37:04.480Z,25.05
2023-04-02T12:39:34.994Z,24.69
2023-04-02T12:42:03.241Z,24.53
2023-04-02T12:44:32.154Z,24.17
2023-04-02T12:47:01.728Z,24.20
2023-04-02T12:49:43.439Z,24.30
2023-04-02T12:52:15.965Z,24.20
2023-04-02T12:54:51.624Z,23.83
2023-04-02T12:57:46.728Z,23.76
2023-04-02T13:00:30.419Z,23.72
2023-04-02T13:03:01.288Z,23.53
2023-04-02T13:05:40.169Z,23.47
2023-04-02T13:08:39.455Z,23.57
2023-04-02T13:11:08.287Z,23.54
2023-04-02T13:13:39.603Z,23.34
2023-04-02T13:16:25.801Z,23.19
2023-04-02T13:19:21.446Z,23.12
2023-04-02T13:21:53.714Z,23.14
2023-04-02T13:24:25.031Z,23.27
2023-04-02T13:26:59.341Z,23.21
2023-04-02T13:29:29.699Z,23.07
2023-04-02T13:32:02.260Z,23.16
2023-04-02T13:34:31.012Z,23.18
2023-04-02T13:36:59.634Z,23.17
2023-04-02T13:39:28.047Z,23.04
2023-04-02T13:41:59.062Z,23.07
2023-04-02T13:44:34.049Z,23.13
2023-04-02T13:47:02.301Z,23.17
2023-04-02T13:49:32.049Z,23.07
2023-04-02T13:52:02.788Z,22.85
2023-04-02T13:54:52.520Z,22.50
2023-04-02T13:57:21.014Z,22.30
2023-04-02T13:59:49.186Z,22.32
2023-04-02T14:02:25.642Z,22.40
2023-04-02T14:05:04.825Z,22.28
2023-04-02T14:08:05.113Z,22.12
2023-04-02T14:10:58.148Z,21.92
2023-04-02T14:13:59.793Z,21.98
2023-04-02T14:16:47.720Z,22.01
2023-04-02T14:19:38.719Z,22.12
2023-04-02T14:22:50.750Z,22.24
2023-04-02T14:25:36.897Z,22.30
2023-04-02T14:28:38.670Z,22.34
2023-04-02T14:31:27.584Z,22.38
2023-04-02T14:34:13.072Z,22.31
2023-04-02T14:36:58.244Z,22.32
2023-04-02T14:39:57.391Z,22.35
2023-04-02T14:42:28.686Z,22.37
2023-04-02T14:45:16.578Z,22.24
2023-04-02T14:47:53.546Z,22.17
2023-04-02T14:50:29.596Z,22.23
2023-04-02T14:53:04.360Z,22.29
2023-04-02T14:55:43.620Z,22.38
2023-04-02T14:58:20.377Z,22.38
2023-04-02T15:00:58.662Z,22.38
2023-04-02T15:03:33.776Z,22.33
2023-04-02T15:06:11.439Z,22.22
2023-04-02T15:08:58.635Z,22.33
2023-04-02T15:11:52.930Z,22.46
2023-04-02T15:14:28.518Z,22.31
2023-04-02T15:16:56.672Z,22.01
2023-04-02T15:19:24.861Z,22.04
2023-04-02T15:22:08.068Z,22.17
2023-04-02T15:24:53.434Z,22.27
2023-04-02T15:27:49.855Z,22.38
2023-04-02T15:30:35.076Z,22.41
2023-04-02T15:33:38.482Z,22.42
2023-04-02T15:36:19.314Z,22.35
2023-04-02T15:39:08.066Z,22.30
2023-04-02T15:41:45.899Z,22.18
2023-04-02T15:44:17.018Z,21.90
2023-04-02T15:46:57.386Z,21.74
2023-04-02T15:50:07.982Z,21.81
2023-04-02T15:52:51.362Z,21.88
2023-04-02T15:55:31.189Z,22.02
2023-04-02T15:58:33.268Z,21.95
2023-04-02T16:01:23.397Z,21.97
2023-04-02T16:04:23.180Z,22.09
2023-04-02T16:07:23.770Z,22.18
2023-04-02T16:10:37.867Z,22.18
2023-04-02T16:13:13.886Z,21.90
2023-04-02T16:16:05.556Z,21.67
2023-04-02T16:18:50.458Z,21.61
2023-04-02T16:21:22.719Z,21.63
2023-04-02T16:23:52.014Z,21.64
2023-04-02T16:27:32.036Z,21.58
2023-04-02T16:30:33.355Z,21.64
2023-04-02T16:33:19.138Z,21.76
2023-04-02T16:35:50.451Z,21.86
2023-04-02T16:38:36.689Z,21.80
2023-04-02T16:41:20.155Z,21.74
2023-04-02T16:43:54.256Z,21.67
2023-04-02T16:46:39.650Z,21.54
2023-04-02T16:49:31.442Z,21.50
2023-04-02T16:52:35.297Z,21.48
2023-04-02T16:55:15.373Z,21.56
2023-04-02T16:58:03.191Z,21.58
2023-04-02T17:00:37.922Z,21.59
2023-04-02T17:03:09.236Z,21.40
2023-04-02T17:06:00.565Z,21.40
2023-04-02T17:08:43.443Z,21.43
2023-04-02T17:11:33.343Z,21.37
2023-04-02T17:14:10.710Z,21.27
2023-04-02T17:16:42.918Z,21.19
2023-04-02T17:19:16.180Z,21.19
2023-04-02T17:21:50.983Z,21.10
2023-04-02T17:24:36.204Z,21.03
2023-04-02T17:27:20.030Z,21.06
2023-04-02T17:29:52.587Z,21.02
2023-04-02T17:32:33.259Z,20.96
2023-04-02T17:35:29.754Z,20.88
2023-04-02T17:38:35.032Z,20.78
2023-04-02T17:41:12.295Z,20.57
2023-04-02T17:44:07.060Z,20.41
2023-04-02T17:46:56.521Z,20.26
2023-04-02T17:49:38.431Z,20.13
2023-04-02T17:52:30.456Z,20.00
2023-04-02T17:55:13.830Z,19.96
2023-04-02T17:58:06.535Z,19.94
2023-04-02T18:00:54.465Z,19.89
2023-04-02T18:03:32.268Z,19.81
2023-04-02T18:06:05.416Z,19.73
2023-04-02T18:08:54.951Z,19.61
2023-04-02T18:11:47.512Z,19.55
2023-04-02T18:14:51.759Z,19.49
2023-04-02T18:17:54.492Z,19.45
2023-04-02T18:20:39.853Z,19.43
2023-04-02T18:23:13.722Z,19.39
2023-04-02T18:26:10.248Z,19.22
2023-04-02T18:29:11.533Z,19.13
2023-04-02T18:32:09.227Z,19.03
2023-04-02T18:34:51.513Z,18.96
2023-04-02T18:37:44.453Z,18.88
2023-04-02T18:40:38.070Z,18.83
2023-04-02T18:43:47.144Z,18.82
2023-04-02T18:46:42.254Z,18.81
2023-04-02T18:49:26.336Z,18.76
2023-04-02T18:52:03.004Z,18.64
2023-04-02T18:54:35.904Z,18.58
2023-04-02T18:57:22.138Z,18.52
2023-04-02T19:00:02.404Z,18.40
2023-04-02T19:02:43.181Z,18.29
2023-04-02T19:05:29.697Z,18.16
2023-04-02T19:08:23.045Z,18.00
2023-04-02T19:11:13.858Z,17.91
2023-04-02T19:13:42.639Z,17.89
2023-04-02T19:16:38.538Z,17.87
2023-04-02T19:19:22.952Z,17.86
2023-04-02T19:21:51.595Z,17.76
2023-04-02T19:24:29.542Z,17.65
2023-04-02T19:27:22.247Z,17.56
2023-04-02T19:30:15.593Z,17.48
2023-04-02T19:33:17.972Z,17.39
2023-04-02T19:36:02.063Z,17.37
2023-04-02T19:38:41.600Z,17.42
2023-04-02T19:41:18.443Z,17.48
2023-04-02T19:43:47.302Z,17.48
2023-04-02T19:46:16.716Z,17.49
2023-04-02T19:48:51.401Z,17.52
2023-04-02T19:51:19.681Z,17.56
2023-04-02T19:53:47.858Z,17.56
2023-04-02T19:56:16.238Z,17.54
2023-04-02T19:58:44.539Z,17.57
2023-04-02T20:01:12.678Z,17.56
2023-04-02T20:03:41.367Z,17.52
2023-04-02T20:06:09.592Z,17.51
2023-04-02T20:08:37.973Z,17.55
2023-04-02T20:11:06.984Z,17.58
2023-04-02T20:13:35.440Z,17.57
2023-04-02T20:16:05.846Z,17.57
2023-04-02T20:18:34.483Z,17.55
2023-04-02T20:21:08.069Z,17.52
2023-04-02T20:23:37.550Z,17.50
2023-04-02T20:26:07.113Z,17.45
2023-04-02T20:28:35.420Z,17.42
2023-04-02T20:31:15.733Z,17.40
2023-04-02T20:33:45.188Z,17.37
2023-04-02T20:36:17.778Z,17.31
2023-04-02T20:38:46.102Z,17.26
2023-04-02T20:41:14.483Z,17.25
2023-04-02T20:43:43.165Z,17.25
2023-04-02T20:46:12.994Z,17.26
2023-04-02T20:48:41.562Z,17.26
2023-04-02T20:51:13.181Z,17.27
2023-04-02T20:53:41.838Z,17.29
2023-04-02T20:56:15.520Z,17.31
2023-04-02T20:58:44.458Z,17.32
2023-04-02T21:01:21.214Z,17.29
2023-04-02T21:03:54.516Z,17.28
2023-04-02T21:06:25.630Z,17.29
2023-04-02T21:08:55.081Z,17.26
2023-04-02T21:11:23.616Z,17.25
2023-04-02T21:13:52.747Z,17.23
2023-04-02T21:16:26.239Z,17.17
2023-04-02T21:18:57.753Z,17.14
2023-04-02T21:21:27.466Z,17.11
2023-04-02T21:23:59.011Z,17.09
2023-04-02T21:26:29.200Z,17.07
2023-04-02T21:28:57.446Z,17.03
2023-04-02T21:31:28.802Z,16.99
2023-04-02T21:33:58.807Z,16.98
2023-04-02T21:36:29.667Z,16.97
2023-04-02T21:39:03.920Z,16.95
2023-04-02T21:41:37.858Z,16.88
2023-04-02T21:44:08.583Z,16.86
2023-04-02T21:46:40.986Z,16.80
2023-04-02T21:49:12.325Z,16.72
2023-04-02T21:51:43.657Z,16.69
2023-04-02T21:54:13.434Z,16.68
2023-04-02T21:56:44.897Z,16.65
2023-04-02T21:59:15.778Z,16.65
2023-04-02T22:01:50.059Z,16.64
2023-04-02T22:04:25.363Z,16.63
2023-04-02T22:06:54.528Z,16.62
2023-04-02T22:09:25.587Z,16.59
2023-04-02T22:11:56.652Z,16.56
2023-04-02T22:14:26.013Z,16.53
2023-04-02T22:16:54.627Z,16.52
2023-04-02T22:19:23.641Z,16.49
2023-04-02T22:21:51.991Z,16.48
2023-04-02T22:24:20.396Z,16.48
2023-04-02T22:26:49.667Z,16.47
2023-04-02T22:29:18.029Z,16.46
2023-04-02T22:31:46.882Z,16.44
2023-04-02T22:34:15.843Z,16.42
2023-04-02T22:36:43.970Z,16.39
2023-04-02T22:39:12.683Z,16.35
2023-04-02T22:41:41.077Z,16.35
2023-04-02T22:44:14.010Z,16.34
2023-04-02T22:46:42.844Z,16.33
2023-04-02T22:49:11.620Z,16.31
2023-04-02T22:51:39.942Z,16.29
2023-04-02T22:54:08.357Z,16.29
2023-04-02T22:56:36.634Z,16.29
2023-04-02T22:59:05.005Z,16.26
2023-04-02T23:01:35.508Z,16.21
2023-04-02T23:04:04.789Z,16.17
2023-04-02T23:06:33.869Z,16.15
2023-04-02T23:09:02.740Z,16.11
2023-04-02T23:11:31.054Z,16.06
2023-04-02T23:13:59.874Z,16.03
2023-04-02T23:16:29.583Z,15.97
2023-04-02T23:18:58.532Z,15.95
2023-04-02T23:21:27.563Z,15.93
2023-04-02T23:23:55.863Z,15.91
2023-04-02T23:26:28.074Z,15.90
2023-04-02T23:28:58.337Z,15.89
2023-04-02T23:31:27.210Z,15.87
2023-04-02T23:33:55.978Z,15.81
2023-04-02T23:36:32.827Z,15.75
2023-04-02T23:39:05.189Z,15.75
2023-04-02T23:41:33.759Z,15.65
2023-04-02T23:44:03.108Z,15.56
2023-04-02T23:46:32.977Z,15.53
2023-04-02T23:49:03.081Z,15.52
2023-04-02T23:51:32.956Z,15.51
2023-04-02T23:54:01.206Z,15.49
2023-04-02T23:56:30.970Z,15.48
2023-04-02T23:58:59.270Z,15.48
